createdAt,value
2023-02-01T00:00:54.709Z,99239.88
2023-02-01T00:03:57.872Z,99236.06
2023-02-01T00:07:01.903Z,99232.03
2023-02-01T00:10:09.306Z,99234.47
2023-02-01T00:13:12.028Z,99229.34
2023-02-01T00:16:18.211Z,99232.84
2023-02-01T00:19:21.130Z,99227.13
2023-02-01T00:22:23.753Z,99226.34
2023-02-01T00:25:26.463Z,99224.44
2023-02-01T00:28:29.130Z,99221.47
2023-02-01T00:31:33.640Z,99223.09
2023-02-01T00:34:36.466Z,99219.28
2023-02-01T00:37:39.209Z,99217.69
2023-02-01T00:40:41.958Z,99219.59
2023-02-01T00:43:45.087Z,99225.28
2023-02-01T00:46:49.310Z,99230.69
2023-02-01T00:49:51.912Z,99229.31
2023-02-01T00:52:54.601Z,99225.81
2023-02-01T00:55:58.290Z,99221.47
2023-02-01T00:59:00.896Z,99227.44
2023-02-01T01:02:05.240Z,99222.28
2023-02-01T01:05:08.782Z,99214.97
2023-02-01T01:08:11.439Z,99214.44
2023-02-01T01:11:15.915Z,99213.34
2023-02-01T01:14:19.315Z,99207.13
2023-02-01T01:17:23.330Z,99203.31
2023-02-01T01:20:26.013Z,99190.63
2023-02-01T01:23:29.860Z,99200.63
2023-02-01T01:26:32.418Z,99199.81
2023-02-01T01:29:35.356Z,99199.56
2023-02-01T01:32:39.272Z,99214.69
2023-02-01T01:35:42.153Z,99213.34
2023-02-01T01:38:45.260Z,99213.34
2023-02-01T01:41:47.842Z,99207.41
2023-02-01T01:45:04.940Z,99213.34
2023-02-01T01:48:13.547Z,99211.19
2023-02-01T01:51:17.937Z,99206.56
2023-02-01T01:54:23.876Z,99203.59
2023-02-01T01:57:29.055Z,99200.06
2023-02-01T02:00:32.242Z,99194.13
2023-02-01T02:03:39.917Z,99190.59
2023-02-01T02:06:46.490Z,99195.19
2023-02-01T02:10:00.186Z,99195.47
2023-02-01T02:13:03.696Z,99176.50
2023-02-01T02:16:18.095Z,99196.78
2023-02-01T02:19:39.491Z,99194.63
2023-02-01T02:23:12.615Z,99201.16
2023-02-01T02:26:43.413Z,99189.22
2023-02-01T02:30:18.946Z,99180.81
2023-02-01T02:33:37.792Z,99188.41
2023-02-01T02:36:45.803Z,99173.25
2023-02-01T02:39:53.084Z,99167.84
2023-02-01T02:43:18.996Z,99171.88
2023-02-01T02:46:42.784Z,99160.78
2023-02-01T02:50:12.730Z,99155.91
2023-02-01T02:53:35.029Z,99163.50
2023-02-01T02:56:56.051Z,99167.31
2023-02-01T03:00:18.048Z,99161.31
2023-02-01T03:03:38.517Z,99158.34
2023-02-01T03:06:42.430Z,99164.03
2023-02-01T03:09:46.121Z,99152.66
2023-02-01T03:12:58.420Z,99163.47
2023-02-01T03:16:04.583Z,99151.31
2023-02-01T03:19:09.342Z,99151.28
2023-02-01T03:22:15.163Z,99145.31
2023-02-01T03:25:22.101Z,99146.97
2023-02-01T03:28:25.765Z,99124.75
2023-02-01T03:31:29.932Z,99127.72
2023-02-01T03:34:32.649Z,99104.16
2023-02-01T03:37:36.676Z,99108.25
2023-02-01T03:40:39.775Z,99108.50
2023-02-01T03:43:50.477Z,99091.44
2023-02-01T03:46:56.029Z,99085.22
2023-02-01T03:50:02.404Z,99086.03
2023-02-01T03:53:09.452Z,99090.63
2023-02-01T03:56:13.148Z,99099.03
2023-02-01T03:59:16.535Z,99105.22
2023-02-01T04:02:19.224Z,99115.53
2023-02-01T04:05:22.062Z,99103.63
2023-02-01T04:08:26.336Z,99104.22
2023-02-01T04:11:30.174Z,99102.28
2023-02-01T04:14:32.712Z,99104.69
2023-02-01T04:17:35.718Z,99099.56
2023-02-01T04:20:38.347Z,99111.50
2023-02-01T04:23:42.389Z,99124.75
2023-02-01T04:26:45.352Z,99138.00
2023-02-01T04:29:48.021Z,99141.25
2023-02-01T04:32:50.738Z,99135.03
2023-02-01T04:35:53.376Z,99129.91
2023-02-01T04:38:57.355Z,99125.59
2023-02-01T04:42:00.103Z,99116.91
2023-02-01T04:45:04.161Z,99107.97
2023-02-01T04:48:07.116Z,99111.19
2023-02-01T04:51:10.866Z,99122.88
2023-02-01T04:54:14.751Z,99131.22
2023-02-01T04:57:17.360Z,99120.66
2023-02-01T05:00:21.193Z,99104.91
2023-02-01T05:03:24.043Z,99099.47
2023-02-01T05:06:26.887Z,99096.84
2023-02-01T05:09:30.904Z,99106.59
2023-02-01T05:12:51.022Z,99110.63
2023-02-01T05:15:54.046Z,99123.56
2023-02-01T05:18:56.891Z,99120.06
2023-02-01T05:21:59.560Z,99123.53
2023-02-01T05:25:03.647Z,99121.88
2023-02-01T05:28:06.703Z,99115.09
2023-02-01T05:31:11.906Z,99120.53
2023-02-01T05:34:14.626Z,99115.41
2023-02-01T05:37:17.311Z,99119.19
2023-02-01T05:40:21.855Z,99120.78
2023-02-01T05:43:24.764Z,99116.69
2023-02-01T05:46:27.783Z,99118.09
2023-02-01T05:49:30.730Z,99132.34
2023-02-01T05:52:33.512Z,99126.91
2023-02-01T05:55:38.258Z,99128.03
2023-02-01T05:58:41.553Z,99119.91
2023-02-01T06:01:44.366Z,99125.16
2023-02-01T06:04:46.929Z,99113.91
2023-02-01T06:07:50.769Z,99120.47
2023-02-01T06:10:59.723Z,99115.31
2023-02-01T06:14:02.408Z,99117.25
2023-02-01T06:17:06.582Z,99093.16
2023-02-01T06:20:12.018Z,99095.34
2023-02-01T06:23:14.840Z,99096.16
2023-02-01T06:26:19.363Z,99098.88
2023-02-01T06:29:22.048Z,99116.69
2023-02-01T06:32:24.957Z,99118.31
2023-02-01T06:35:27.741Z,99126.69
2023-02-01T06:38:30.508Z,99133.97
2023-02-01T06:41:35.654Z,99135.31
2023-02-01T06:44:38.389Z,99130.44
2023-02-01T06:47:41.502Z,99141.25
2023-02-01T06:50:44.199Z,99119.25
2023-02-01T06:53:46.815Z,99122.25
2023-02-01T06:56:50.922Z,99127.63
2023-02-01T06:59:53.586Z,99133.56
2023-02-01T07:02:56.256Z,99142.22
2023-02-01T07:06:00.534Z,99139.78
2023-02-01T07:09:03.212Z,99153.03
2023-02-01T07:12:08.128Z,99152.19
2023-02-01T07:15:11.382Z,99160.53
2023-02-01T07:18:15.262Z,99167.59
2023-02-01T07:21:17.787Z,99173.50
2023-02-01T07:24:20.567Z,99163.72
2023-02-01T07:27:26.669Z,99168.81
2023-02-01T07:30:29.458Z,99173.72
2023-02-01T07:33:32.368Z,99173.75
2023-02-01T07:36:35.413Z,99189.56
2023-02-01T07:39:38.037Z,99184.56
2023-02-01T07:42:42.089Z,99185.31
2023-02-01T07:45:45.293Z,99170.63
2023-02-01T07:48:48.090Z,99172.81
2023-02-01T07:51:50.993Z,99178.75
2023-02-01T07:54:53.599Z,99171.66
2023-02-01T07:58:01.124Z,99157.44
2023-02-01T08:01:22.279Z,99163.81
2023-02-01T08:04:25.255Z,99169.44
2023-02-01T08:07:27.914Z,99170.38
2023-02-01T08:10:30.572Z,99179.63
2023-02-01T08:13:35.277Z,99163.59
2023-02-01T08:16:38.866Z,99148.38
2023-02-01T08:19:41.515Z,99142.88
2023-02-01T08:22:44.335Z,99151.50
2023-02-01T08:25:47.507Z,99155.19
2023-02-01T08:28:53.356Z,99169.03
2023-02-01T08:31:56.319Z,99160.72
2023-02-01T08:34:59.048Z,99167.56
2023-02-01T08:38:01.936Z,99167.09
2023-02-01T08:41:08.905Z,99163.44
2023-02-01T08:44:12.934Z,99173.94
2023-02-01T08:47:15.703Z,99177.13
2023-02-01T08:50:19.636Z,99175.47
2023-02-01T08:53:22.228Z,99187.97
2023-02-01T08:56:25.873Z,99203.34
2023-02-01T08:59:30.423Z,99195.94
2023-02-01T09:02:33.243Z,99196.38
2023-02-01T09:05:48.787Z,99195.34
2023-02-01T09:08:52.184Z,99205.69
2023-02-01T09:11:54.898Z,99203.75
2023-02-01T09:15:00.624Z,99203.97
2023-02-01T09:18:03.375Z,99214.41
2023-02-01T09:21:07.795Z,99223.16
2023-02-01T09:24:10.895Z,99222.16
2023-02-01T09:27:13.717Z,99220.81
2023-02-01T09:30:18.127Z,99230.13
2023-02-01T09:33:22.365Z,99233.09
2023-02-01T09:36:25.431Z,99219.81
2023-02-01T09:39:28.024Z,99224.16
2023-02-01T09:42:49.359Z,99218.38
2023-02-01T09:45:59.450Z,99228.94
2023-02-01T09:49:04.937Z,99226.00
2023-02-01T09:52:10.222Z,99226.50
2023-02-01T09:55:17.036Z,99240.19
2023-02-01T09:58:24.002Z,99232.25
2023-02-01T10:01:30.295Z,99236.22
2023-02-01T10:04:34.439Z,99240.06
2023-02-01T10:07:40.895Z,99242.34
2023-02-01T10:10:47.843Z,99234.72
2023-02-01T10:13:57.086Z,99234.31
2023-02-01T10:17:06.536Z,99241.50
2023-02-01T10:20:13.267Z,99243.31
2023-02-01T10:23:34.633Z,99256.81
2023-02-01T10:26:40.090Z,99260.78
2023-02-01T10:29:47.075Z,99262.59
2023-02-01T10:32:53.773Z,99258.00
2023-02-01T10:36:00.949Z,99254.41
2023-02-01T10:39:07.965Z,99247.56
2023-02-01T10:42:11.660Z,99263.06
2023-02-01T10:45:17.450Z,99266.88
2023-02-01T10:48:21.501Z,99257.34
2023-02-01T10:51:27.147Z,99256.84
2023-02-01T10:54:36.000Z,99271.75
2023-02-01T10:57:38.687Z,99250.66
2023-02-01T11:00:47.708Z,99251.78
2023-02-01T11:03:55.971Z,99250.41
2023-02-01T11:07:08.885Z,99247.16
2023-02-01T11:10:36.647Z,99235.72
2023-02-01T11:13:40.742Z,99235.44
2023-02-01T11:16:50.002Z,99232.72
2023-02-01T11:20:00.955Z,99243.03
2023-02-01T11:23:03.877Z,99228.50
2023-02-01T11:26:13.799Z,99227.78
2023-02-01T11:29:21.391Z,99227.13
2023-02-01T11:32:25.732Z,99233.94
2023-02-01T11:35:31.120Z,99218.84
2023-02-01T11:38:35.694Z,99215.31
2023-02-01T11:41:44.771Z,99208.09
2023-02-01T11:44:48.547Z,99183.75
2023-02-01T11:47:52.780Z,99189.63
2023-02-01T11:51:07.119Z,99179.06
2023-02-01T11:54:27.936Z,99175.56
2023-02-01T11:57:45.109Z,99177.91
2023-02-01T12:01:03.977Z,99179.97
2023-02-01T12:04:26.419Z,99159.72
2023-02-01T12:07:41.972Z,99165.94
2023-02-01T12:10:54.439Z,99175.00
2023-02-01T12:14:06.940Z,99166.19
2023-02-01T12:17:34.587Z,99167.06
2023-02-01T12:20:57.896Z,99157.19
2023-02-01T12:24:21.213Z,99145.94
2023-02-01T12:27:48.133Z,99169.84
2023-02-01T12:31:01.846Z,99169.78
2023-02-01T12:34:31.434Z,99174.41
2023-02-01T12:37:47.117Z,99170.28
2023-02-01T12:41:04.828Z,99166.25
2023-02-01T12:44:12.424Z,99174.34
2023-02-01T12:47:21.178Z,99170.59
2023-02-01T12:50:26.981Z,99174.47
2023-02-01T12:53:33.752Z,99175.34
2023-02-01T12:56:42.096Z,99181.81
2023-02-01T12:59:46.956Z,99185.53
2023-02-01T13:02:54.911Z,99189.19
2023-02-01T13:06:01.168Z,99168.97
2023-02-01T13:09:10.110Z,99165.53
2023-02-01T13:12:18.281Z,99168.84
2023-02-01T13:15:25.357Z,99167.41
2023-02-01T13:18:36.715Z,99163.72
2023-02-01T13:21:42.456Z,99150.69
2023-02-01T13:24:47.223Z,99146.00
2023-02-01T13:27:51.471Z,99150.56
2023-02-01T13:31:10.031Z,99142.44
2023-02-01T13:34:42.272Z,99144.91
2023-02-01T13:38:01.739Z,99146.16
2023-02-01T13:41:15.397Z,99148.00
2023-02-01T13:44:28.421Z,99138.53
2023-02-01T13:47:33.948Z,99137.09
2023-02-01T13:50:39.752Z,99145.00
2023-02-01T13:53:46.927Z,99148.06
2023-02-01T13:56:49.726Z,99141.25
2023-02-01T13:59:55.873Z,99131.63
2023-02-01T14:03:16.987Z,99137.50
2023-02-01T14:06:39.112Z,99135.19
2023-02-01T14:09:41.799Z,99123.97
2023-02-01T14:12:48.422Z,99114.78
2023-02-01T14:16:14.737Z,99114.22
2023-02-01T14:19:22.818Z,99106.00
2023-02-01T14:22:35.813Z,99103.47
2023-02-01T14:25:38.436Z,99107.34
2023-02-01T14:29:01.285Z,99126.72
2023-02-01T14:32:08.917Z,99123.97
2023-02-01T14:35:21.859Z,99120.69
2023-02-01T14:38:24.886Z,99129.66
2023-02-01T14:41:32.374Z,99126.34
2023-02-01T14:44:37.943Z,99137.75
2023-02-01T14:47:43.258Z,99139.31
2023-02-01T14:50:46.697Z,99140.13
2023-02-01T14:53:49.782Z,99137.03
2023-02-01T14:56:52.664Z,99169.31
2023-02-01T14:59:58.427Z,99159.69
2023-02-01T15:03:26.084Z,99167.09
2023-02-01T15:06:33.300Z,99160.50
2023-02-01T15:09:37.476Z,99155.81
2023-02-01T15:12:46.424Z,99149.53
2023-02-01T15:16:05.633Z,99157.59
2023-02-01T15:19:15.115Z,99163.59
2023-02-01T15:22:20.916Z,99148.59
2023-02-01T15:25:25.986Z,99159.22
2023-02-01T15:28:29.043Z,99157.31
2023-02-01T15:31:37.316Z,99170.75
2023-02-01T15:34:48.935Z,99160.00
2023-02-01T15:37:52.970Z,99166.41
2023-02-01T15:40:56.987Z,99162.59
2023-02-01T15:47:37.113Z,99155.72
2023-02-01T15:50:41.423Z,99157.88
2023-02-01T15:53:47.260Z,99165.28
2023-02-01T15:56:54.347Z,99169.00
2023-02-01T15:59:57.583Z,99179.50
2023-02-01T16:03:01.649Z,99177.63
2023-02-01T16:06:07.912Z,99175.88
2023-02-01T16:09:13.626Z,99181.91
2023-02-01T16:12:29.335Z,99179.97
2023-02-01T16:15:33.332Z,99179.78
2023-02-01T16:18:35.972Z,99181.75
2023-02-01T16:21:40.626Z,99183.28
2023-02-01T16:24:43.475Z,99182.81
2023-02-01T16:27:46.167Z,99185.16
2023-02-01T16:30:50.704Z,99189.47
2023-02-01T16:33:53.726Z,99193.81
2023-02-01T16:36:58.307Z,99186.09
2023-02-01T16:40:01.379Z,99206.88
2023-02-01T16:43:04.519Z,99209.97
2023-02-01T16:46:08.705Z,99197.13
2023-02-01T16:49:20.389Z,99189.25
2023-02-01T16:52:26.478Z,99201.31
2023-02-01T16:55:29.072Z,99200.66
2023-02-01T16:58:31.685Z,99202.59
2023-02-01T17:01:34.536Z,99194.91
2023-02-01T17:04:37.833Z,99195.50
2023-02-01T17:07:42.515Z,99191.59
2023-02-01T17:10:45.310Z,99194.88
2023-02-01T17:13:48.434Z,99205.34
2023-02-01T17:16:52.657Z,99200.50
2023-02-01T17:19:55.336Z,99216.81
2023-02-01T17:22:59.700Z,99202.41
2023-02-01T17:26:03.624Z,99220.28
2023-02-01T17:29:06.193Z,99202.41
2023-02-01T17:32:14.046Z,99211.00
2023-02-01T17:35:21.117Z,99200.59
2023-02-01T17:38:25.280Z,99206.31
2023-02-01T17:41:28.102Z,99199.78
2023-02-01T17:44:30.806Z,99202.13
2023-02-01T17:47:34.563Z,99204.16
2023-02-01T17:50:37.363Z,99205.44
2023-02-01T17:53:41.317Z,99204.44
2023-02-01T17:56:43.904Z,99210.16
2023-02-01T17:59:46.731Z,99200.94
2023-02-01T18:02:49.727Z,99207.50
2023-02-01T18:05:53.662Z,99198.09
2023-02-01T18:08:57.869Z,99190.78
2023-02-01T18:12:00.505Z,99188.84
2023-02-01T18:15:03.286Z,99188.84
2023-02-01T18:18:05.932Z,99208.28
2023-02-01T18:21:09.999Z,99208.63
2023-02-01T18:24:16.008Z,99208.31
2023-02-01T18:27:19.935Z,99224.41
2023-02-01T18:30:24.669Z,99219.53
2023-02-01T18:33:27.443Z,99213.47
2023-02-01T18:36:30.453Z,99219.44
2023-02-01T18:39:34.445Z,99219.16
2023-02-01T18:42:37.087Z,99214.78
2023-02-01T18:45:41.619Z,99214.78
2023-02-01T18:48:44.740Z,99212.00
2023-02-01T18:51:47.679Z,99204.47
2023-02-01T18:54:59.466Z,99197.88
2023-02-01T18:58:06.613Z,99188.09
2023-02-01T19:01:14.401Z,99192.00
2023-02-01T19:04:25.676Z,99188.22
2023-02-01T19:07:28.929Z,99194.63
2023-02-01T19:10:36.690Z,99191.59
2023-02-01T19:13:39.931Z,99199.63
2023-02-01T19:16:42.692Z,99207.47
2023-02-01T19:19:56.822Z,99189.94
2023-02-01T19:23:02.529Z,99167.09
2023-02-01T19:26:11.975Z,99152.91
2023-02-01T19:29:15.904Z,99147.38
2023-02-01T19:32:20.813Z,99144.56
2023-02-01T19:35:23.981Z,99147.59
2023-02-01T19:38:26.869Z,99141.91
2023-02-01T19:41:31.472Z,99144.91
2023-02-01T19:44:34.610Z,99145.38
2023-02-01T19:47:37.300Z,99146.44
2023-02-01T19:50:40.808Z,99162.88
2023-02-01T19:53:43.385Z,99157.44
2023-02-01T19:56:49.038Z,99165.50
2023-02-01T19:59:51.577Z,99174.47
2023-02-01T20:02:53.420Z,99170.00
2023-02-01T20:05:57.327Z,99187.75
2023-02-01T20:09:00.071Z,99195.94
2023-02-01T20:12:04.579Z,99200.22
2023-02-01T20:15:08.789Z,99192.38
2023-02-01T20:18:11.647Z,99205.34
2023-02-01T20:21:14.436Z,99214.38
2023-02-01T20:24:18.702Z,99220.16
2023-02-01T20:27:24.064Z,99223.16
2023-02-01T20:30:29.299Z,99217.22
2023-02-01T20:33:32.810Z,99228.81
2023-02-01T20:36:35.516Z,99219.28
2023-02-01T20:39:38.324Z,99227.25
2023-02-01T20:42:42.344Z,99225.22
2023-02-01T20:45:45.681Z,99231.56
2023-02-01T20:48:49.833Z,99222.38
2023-02-01T20:51:52.776Z,99232.88
2023-02-01T20:54:55.481Z,99231.47
2023-02-01T20:57:59.454Z,99232.84
2023-02-01T21:01:02.424Z,99228.06
2023-02-01T21:04:05.115Z,99234.25
2023-02-01T21:07:07.684Z,99228.84
2023-02-01T21:10:11.593Z,99243.00
2023-02-01T21:13:15.869Z,99233.69
2023-02-01T21:16:21.269Z,99233.38
2023-02-01T21:19:28.184Z,99228.63
2023-02-01T21:22:30.928Z,99229.03
2023-02-01T21:25:34.205Z,99223.84
2023-02-01T21:28:38.245Z,99223.59
2023-02-01T21:31:42.530Z,99217.25
2023-02-01T21:34:45.382Z,99220.56
2023-02-01T21:37:48.005Z,99218.56
2023-02-01T21:41:11.332Z,99215.34
2023-02-01T21:44:15.610Z,99212.41
2023-02-01T21:47:21.392Z,99212.94
2023-02-01T21:50:29.446Z,99226.72
2023-02-01T21:53:32.132Z,99215.31
2023-02-01T21:56:35.581Z,99209.78
2023-02-01T21:59:40.078Z,99206.41
2023-02-01T22:02:42.858Z,99199.97
2023-02-01T22:05:50.579Z,99208.50
2023-02-01T22:08:55.155Z,99198.03
2023-02-01T22:11:58.158Z,99203.56
2023-02-01T22:15:02.365Z,99210.38
2023-02-01T22:18:05.234Z,99201.19
2023-02-01T22:21:07.831Z,99206.53
2023-02-01T22:24:11.848Z,99207.56
2023-02-01T22:27:14.960Z,99215.25
2023-02-01T22:30:19.774Z,99216.06
2023-02-01T22:33:22.665Z,99213.03
2023-02-01T22:36:25.899Z,99207.94
2023-02-01T22:39:28.445Z,99207.00
2023-02-01T22:42:31.206Z,99208.69
2023-02-01T22:45:37.238Z,99212.78
2023-02-01T22:48:41.901Z,99207.38
2023-02-01T22:51:44.570Z,99202.81
2023-02-01T22:54:47.233Z,99201.56
2023-02-01T22:57:49.853Z,99206.63
2023-02-01T23:00:53.840Z,99203.94
2023-02-01T23:04:00.547Z,99192.06
2023-02-01T23:07:03.384Z,99209.94
2023-02-01T23:10:06.584Z,99199.88
2023-02-01T23:13:09.302Z,99205.59
2023-02-01T23:16:14.907Z,99209.41
2023-02-01T23:19:18.370Z,99210.38
2023-02-01T23:22:20.969Z,99202.75
2023-02-01T23:25:23.848Z,99196.75
2023-02-01T23:28:27.827Z,99178.63
2023-02-01T23:31:32.369Z,99178.66
2023-02-01T23:34:35.809Z,99178.84
2023-02-01T23:37:40.620Z,99161.31
2023-02-01T23:40:43.219Z,99173.41
2023-02-01T23:43:58.549Z,99176.63
2023-02-01T23:47:02.488Z,99187.47
2023-02-01T23:50:05.601Z,99183.34
2023-02-01T23:53:08.292Z,99189.59
2023-02-01T23:56:18.077Z,99197.66
2023-02-01T23:59:23.245Z,99185.97
